sensor_id;sensor_type;location;lat;lon;timestamp;temperature;humidity
28959;DHT22;16066;0.000;0.000;2023-02-23T00:01:29;19.90;45.70
28959;DHT22;16066;0.000;0.000;2023-02-23T00:03:56;19.90;45.70
28959;DHT22;16066;0.000;0.000;2023-02-23T00:06:27;19.90;45.80
28959;DHT22;16066;0.000;0.000;2023-02-23T00:08:53;19.80;45.80
28959;DHT22;16066;0.000;0.000;2023-02-23T00:11:20;19.80;45.80
28959;DHT22;16066;0.000;0.000;2023-02-23T00:13:47;19.80;45.80
28959;DHT22;16066;0.000;0.000;2023-02-23T00:16:19;19.80;45.90
28959;DHT22;16066;0.000;0.000;2023-02-23T00:18:48;19.70;45.80
28959;DHT22;16066;0.000;0.000;2023-02-23T00:21:26;19.70;45.90
28959;DHT22;16066;0.000;0.000;2023-02-23T00:23:58;19.70;45.90
28959;DHT22;16066;0.000;0.000;2023-02-23T00:26:26;19.70;46.00
28959;DHT22;16066;0.000;0.000;2023-02-23T00:28:55;19.70;46.00
28959;DHT22;16066;0.000;0.000;2023-02-23T00:31:21;19.70;46.60
28959;DHT22;16066;0.000;0.000;2023-02-23T00:33:54;19.60;46.00
28959;DHT22;16066;0.000;0.000;2023-02-23T00:36:22;19.60;46.00
28959;DHT22;16066;0.000;0.000;2023-02-23T00:38:52;19.60;46.10
28959;DHT22;16066;0.000;0.000;2023-02-23T00:41:18;19.60;46.10
28959;DHT22;16066;0.000;0.000;2023-02-23T00:43:48;19.60;46.10
28959;DHT22;16066;0.000;0.000;2023-02-23T00:46:16;19.50;46.00
28959;DHT22;16066;0.000;0.000;2023-02-23T00:48:45;19.50;46.10
28959;DHT22;16066;0.000;0.000;2023-02-23T00:51:11;19.50;46.10
28959;DHT22;16066;0.000;0.000;2023-02-23T00:53:36;19.50;46.20
28959;DHT22;16066;0.000;0.000;2023-02-23T00:56:07;19.50;46.20
28959;DHT22;16066;0.000;0.000;2023-02-23T00:58:33;19.50;46.20
28959;DHT22;16066;0.000;0.000;2023-02-23T01:00:59;19.50;46.30
28959;DHT22;16066;0.000;0.000;2023-02-23T01:03:28;19.50;46.30
28959;DHT22;16066;0.000;0.000;2023-02-23T01:05:59;19.40;46.20
28959;DHT22;16066;0.000;0.000;2023-02-23T01:08:24;19.40;46.30
28959;DHT22;16066;0.000;0.000;2023-02-23T01:10:52;19.40;46.30
28959;DHT22;16066;0.000;0.000;2023-02-23T01:13:19;19.40;46.30
28959;DHT22;16066;0.000;0.000;2023-02-23T01:15:45;19.40;46.30
28959;DHT22;16066;0.000;0.000;2023-02-23T01:18:13;19.40;46.30
28959;DHT22;16066;0.000;0.000;2023-02-23T01:20:39;19.40;46.30
28959;DHT22;16066;0.000;0.000;2023-02-23T01:23:09;19.40;46.40
28959;DHT22;16066;0.000;0.000;2023-02-23T01:25:35;19.30;46.20
28959;DHT22;16066;0.000;0.000;2023-02-23T01:28:01;19.40;46.40
28959;DHT22;16066;0.000;0.000;2023-02-23T01:30:26;19.30;46.30
28959;DHT22;16066;0.000;0.000;2023-02-23T01:32:52;19.30;46.30
28959;DHT22;16066;0.000;0.000;2023-02-23T01:35:18;19.30;46.40
28959;DHT22;16066;0.000;0.000;2023-02-23T01:37:43;19.30;46.40
28959;DHT22;16066;0.000;0.000;2023-02-23T01:40:18;19.30;46.40
28959;DHT22;16066;0.000;0.000;2023-02-23T01:43:06;19.30;46.40
28959;DHT22;16066;0.000;0.000;2023-02-23T01:45:39;19.30;46.40
28959;DHT22;16066;0.000;0.000;2023-02-23T01:48:12;19.30;46.40
28959;DHT22;16066;0.000;0.000;2023-02-23T01:50:55;19.20;46.30
28959;DHT22;16066;0.000;0.000;2023-02-23T01:53:22;19.20;46.30
28959;DHT22;16066;0.000;0.000;2023-02-23T01:55:52;19.20;46.30
28959;DHT22;16066;0.000;0.000;2023-02-23T01:58:20;19.20;46.40
28959;DHT22;16066;0.000;0.000;2023-02-23T02:00:50;19.20;46.40
28959;DHT22;16066;0.000;0.000;2023-02-23T02:03:26;19.20;46.40
28959;DHT22;16066;0.000;0.000;2023-02-23T02:05:53;19.20;46.40
28959;DHT22;16066;0.000;0.000;2023-02-23T02:08:19;19.20;46.40
28959;DHT22;16066;0.000;0.000;2023-02-23T02:10:48;19.20;46.40
28959;DHT22;16066;0.000;0.000;2023-02-23T02:13:22;19.20;46.50
28959;DHT22;16066;0.000;0.000;2023-02-23T02:18:55;19.20;46.50
28959;DHT22;16066;0.000;0.000;2023-02-23T02:21:55;19.20;46.40
28959;DHT22;16066;0.000;0.000;2023-02-23T02:24:36;19.10;46.40
28959;DHT22;16066;0.000;0.000;2023-02-23T02:35:39;19.10;46.40
28959;DHT22;16066;0.000;0.000;2023-02-23T02:38:25;19.10;46.50
28959;DHT22;16066;0.000;0.000;2023-02-23T02:41:13;19.10;46.50
28959;DHT22;16066;0.000;0.000;2023-02-23T02:44:01;19.10;46.50
28959;DHT22;16066;0.000;0.000;2023-02-23T02:46:37;19.10;46.50
28959;DHT22;16066;0.000;0.000;2023-02-23T02:52:18;19.10;46.60
28959;DHT22;16066;0.000;0.000;2023-02-23T02:54:51;19.10;46.60
28959;DHT22;16066;0.000;0.000;2023-02-23T02:57:19;19.10;46.60
28959;DHT22;16066;0.000;0.000;2023-02-23T02:59:48;19.10;46.60
28959;DHT22;16066;0.000;0.000;2023-02-23T03:02:36;19.10;46.60
28959;DHT22;16066;0.000;0.000;2023-02-23T03:05:25;19.00;46.50
28959;DHT22;16066;0.000;0.000;2023-02-23T03:11:34;19.00;46.50
28959;DHT22;16066;0.000;0.000;2023-02-23T03:17:42;19.00;46.50
28959;DHT22;16066;0.000;0.000;2023-02-23T03:20:39;19.00;46.60
28959;DHT22;16066;0.000;0.000;2023-02-23T03:23:50;19.00;46.50
28959;DHT22;16066;0.000;0.000;2023-02-23T03:26:52;19.00;46.60
28959;DHT22;16066;0.000;0.000;2023-02-23T03:29:52;19.00;46.60
28959;DHT22;16066;0.000;0.000;2023-02-23T03:32:54;19.00;46.60
28959;DHT22;16066;0.000;0.000;2023-02-23T03:36:11;19.00;46.60
28959;DHT22;16066;0.000;0.000;2023-02-23T03:39:02;19.00;46.60
28959;DHT22;16066;0.000;0.000;2023-02-23T03:41:48;19.00;46.60
28959;DHT22;16066;0.000;0.000;2023-02-23T03:44:41;18.90;46.60
28959;DHT22;16066;0.000;0.000;2023-02-23T03:47:30;18.90;46.60
28959;DHT22;16066;0.000;0.000;2023-02-23T03:50:35;18.90;46.60
28959;DHT22;16066;0.000;0.000;2023-02-23T03:53:30;18.90;46.60
28959;DHT22;16066;0.000;0.000;2023-02-23T03:56:17;18.90;46.60
28959;DHT22;16066;0.000;0.000;2023-02-23T03:59:04;18.90;46.60
28959;DHT22;16066;0.000;0.000;2023-02-23T04:01:50;18.90;46.60
28959;DHT22;16066;0.000;0.000;2023-02-23T04:04:35;18.90;46.60
28959;DHT22;16066;0.000;0.000;2023-02-23T04:07:20;18.90;46.60
28959;DHT22;16066;0.000;0.000;2023-02-23T04:10:07;18.90;46.60
28959;DHT22;16066;0.000;0.000;2023-02-23T04:13:10;18.90;46.60
28959;DHT22;16066;0.000;0.000;2023-02-23T04:16:01;18.90;46.70
28959;DHT22;16066;0.000;0.000;2023-02-23T04:18:30;18.90;46.70
28959;DHT22;16066;0.000;0.000;2023-02-23T04:20:57;18.90;46.70
28959;DHT22;16066;0.000;0.000;2023-02-23T04:23:24;18.90;46.70
28959;DHT22;16066;0.000;0.000;2023-02-23T04:25:50;18.90;46.60
28959;DHT22;16066;0.000;0.000;2023-02-23T04:28:16;18.90;46.70
28959;DHT22;16066;0.000;0.000;2023-02-23T04:30:41;18.90;46.70
28959;DHT22;16066;0.000;0.000;2023-02-23T04:33:07;18.90;46.70
28959;DHT22;16066;0.000;0.000;2023-02-23T04:35:33;18.80;46.60
28959;DHT22;16066;0.000;0.000;2023-02-23T04:37:59;18.80;46.60
28959;DHT22;16066;0.000;0.000;2023-02-23T04:40:25;18.80;46.70
28959;DHT22;16066;0.000;0.000;2023-02-23T04:42:51;18.80;46.60
28959;DHT22;16066;0.000;0.000;2023-02-23T04:45:17;18.80;46.70
28959;DHT22;16066;0.000;0.000;2023-02-23T04:47:43;18.80;46.70
28959;DHT22;16066;0.000;0.000;2023-02-23T04:50:09;18.80;46.70
28959;DHT22;16066;0.000;0.000;2023-02-23T04:52:36;18.80;46.70
28959;DHT22;16066;0.000;0.000;2023-02-23T04:55:04;18.80;46.70
28959;DHT22;16066;0.000;0.000;2023-02-23T04:57:29;18.80;46.70
28959;DHT22;16066;0.000;0.000;2023-02-23T04:59:55;18.80;46.70
28959;DHT22;16066;0.000;0.000;2023-02-23T05:02:20;18.80;46.70
28959;DHT22;16066;0.000;0.000;2023-02-23T05:04:46;18.80;46.80
28959;DHT22;16066;0.000;0.000;2023-02-23T05:07:12;18.80;46.80
28959;DHT22;16066;0.000;0.000;2023-02-23T05:09:37;18.80;46.70
28959;DHT22;16066;0.000;0.000;2023-02-23T05:12:03;18.80;46.70
28959;DHT22;16066;0.000;0.000;2023-02-23T05:14:28;18.80;46.70
28959;DHT22;16066;0.000;0.000;2023-02-23T05:16:54;18.80;46.70
28959;DHT22;16066;0.000;0.000;2023-02-23T05:19:20;18.80;46.80
28959;DHT22;16066;0.000;0.000;2023-02-23T05:21:45;18.80;46.90
28959;DHT22;16066;0.000;0.000;2023-02-23T05:24:11;18.80;47.00
28959;DHT22;16066;0.000;0.000;2023-02-23T05:26:36;18.80;47.00
28959;DHT22;16066;0.000;0.000;2023-02-23T05:29:02;18.80;47.00
28959;DHT22;16066;0.000;0.000;2023-02-23T05:31:29;18.80;47.00
28959;DHT22;16066;0.000;0.000;2023-02-23T05:33:54;18.80;46.90
28959;DHT22;16066;0.000;0.000;2023-02-23T05:36:20;18.70;46.80
28959;DHT22;16066;0.000;0.000;2023-02-23T05:38:46;18.70;46.80
28959;DHT22;16066;0.000;0.000;2023-02-23T05:41:15;18.70;46.80
28959;DHT22;16066;0.000;0.000;2023-02-23T05:43:41;18.70;46.80
28959;DHT22;16066;0.000;0.000;2023-02-23T05:46:15;18.70;46.80
28959;DHT22;16066;0.000;0.000;2023-02-23T05:48:41;18.70;46.80
28959;DHT22;16066;0.000;0.000;2023-02-23T05:51:08;18.70;46.80
28959;DHT22;16066;0.000;0.000;2023-02-23T05:53:35;18.70;46.80
28959;DHT22;16066;0.000;0.000;2023-02-23T05:56:02;18.70;46.80
28959;DHT22;16066;0.000;0.000;2023-02-23T05:58:28;18.70;46.90
28959;DHT22;16066;0.000;0.000;2023-02-23T06:00:54;18.70;46.90
28959;DHT22;16066;0.000;0.000;2023-02-23T06:03:20;18.70;46.90
28959;DHT22;16066;0.000;0.000;2023-02-23T06:05:51;18.70;46.90
28959;DHT22;16066;0.000;0.000;2023-02-23T06:08:17;18.70;46.90
28959;DHT22;16066;0.000;0.000;2023-02-23T06:10:42;18.70;46.80
28959;DHT22;16066;0.000;0.000;2023-02-23T06:13:08;18.70;46.80
28959;DHT22;16066;0.000;0.000;2023-02-23T06:15:34;18.70;46.80
28959;DHT22;16066;0.000;0.000;2023-02-23T06:17:59;18.70;46.80
28959;DHT22;16066;0.000;0.000;2023-02-23T06:20:25;18.70;46.80
28959;DHT22;16066;0.000;0.000;2023-02-23T06:22:50;18.70;46.90
28959;DHT22;16066;0.000;0.000;2023-02-23T06:25:16;18.70;46.90
28959;DHT22;16066;0.000;0.000;2023-02-23T06:27:41;18.70;46.90
28959;DHT22;16066;0.000;0.000;2023-02-23T06:30:10;18.70;46.90
28959;DHT22;16066;0.000;0.000;2023-02-23T06:32:36;18.70;47.00
28959;DHT22;16066;0.000;0.000;2023-02-23T06:35:03;18.70;47.00
28959;DHT22;16066;0.000;0.000;2023-02-23T06:37:29;18.70;47.00
28959;DHT22;16066;0.000;0.000;2023-02-23T06:39:55;18.70;47.20
28959;DHT22;16066;0.000;0.000;2023-02-23T06:42:20;18.70;47.80
28959;DHT22;16066;0.000;0.000;2023-02-23T06:44:46;18.70;47.20
28959;DHT22;16066;0.000;0.000;2023-02-23T06:47:11;18.80;47.30
28959;DHT22;16066;0.000;0.000;2023-02-23T06:49:37;18.80;47.10
28959;DHT22;16066;0.000;0.000;2023-02-23T06:52:05;18.80;47.10
28959;DHT22;16066;0.000;0.000;2023-02-23T06:54:30;18.80;47.10
28959;DHT22;16066;0.000;0.000;2023-02-23T06:56:58;18.90;47.10
28959;DHT22;16066;0.000;0.000;2023-02-23T06:59:24;18.90;47.10
28959;DHT22;16066;0.000;0.000;2023-02-23T07:01:49;18.90;47.10
28959;DHT22;16066;0.000;0.000;2023-02-23T07:04:15;19.00;47.10
28959;DHT22;16066;0.000;0.000;2023-02-23T07:06:40;19.00;47.10
28959;DHT22;16066;0.000;0.000;2023-02-23T07:09:06;19.10;47.20
28959;DHT22;16066;0.000;0.000;2023-02-23T07:11:31;19.20;47.10
28959;DHT22;16066;0.000;0.000;2023-02-23T07:13:57;19.20;47.20
28959;DHT22;16066;0.000;0.000;2023-02-23T07:16:24;19.30;47.20
28959;DHT22;16066;0.000;0.000;2023-02-23T07:18:52;19.40;47.50
28959;DHT22;16066;0.000;0.000;2023-02-23T07:21:17;19.50;47.20
28959;DHT22;16066;0.000;0.000;2023-02-23T07:23:43;19.60;47.10
28959;DHT22;16066;0.000;0.000;2023-02-23T07:26:08;19.60;46.90
28959;DHT22;16066;0.000;0.000;2023-02-23T07:28:34;19.70;46.90
28959;DHT22;16066;0.000;0.000;2023-02-23T07:30:59;19.80;46.90
28959;DHT22;16066;0.000;0.000;2023-02-23T07:33:25;19.80;46.80
28959;DHT22;16066;0.000;0.000;2023-02-23T07:35:51;19.90;46.60
28959;DHT22;16066;0.000;0.000;2023-02-23T07:38:17;19.90;46.50
28959;DHT22;16066;0.000;0.000;2023-02-23T07:40:43;20.00;46.40
28959;DHT22;16066;0.000;0.000;2023-02-23T07:43:08;20.00;46.40
28959;DHT22;16066;0.000;0.000;2023-02-23T07:45:35;20.10;46.30
28959;DHT22;16066;0.000;0.000;2023-02-23T07:48:00;20.10;46.30
28959;DHT22;16066;0.000;0.000;2023-02-23T07:50:26;20.20;46.20
28959;DHT22;16066;0.000;0.000;2023-02-23T07:52:51;20.20;46.20
28959;DHT22;16066;0.000;0.000;2023-02-23T07:55:17;20.20;46.10
28959;DHT22;16066;0.000;0.000;2023-02-23T07:57:43;20.30;46.80
28959;DHT22;16066;0.000;0.000;2023-02-23T08:00:10;20.30;46.10
28959;DHT22;16066;0.000;0.000;2023-02-23T08:02:36;20.30;46.10
28959;DHT22;16066;0.000;0.000;2023-02-23T08:05:02;20.30;46.00
28959;DHT22;16066;0.000;0.000;2023-02-23T08:07:27;20.30;45.90
28959;DHT22;16066;0.000;0.000;2023-02-23T08:09:53;20.30;46.00
28959;DHT22;16066;0.000;0.000;2023-02-23T08:12:19;20.30;46.00
28959;DHT22;16066;0.000;0.000;2023-02-23T08:14:44;20.40;45.90
28959;DHT22;16066;0.000;0.000;2023-02-23T08:17:10;20.40;46.00
28959;DHT22;16066;0.000;0.000;2023-02-23T08:19:36;20.40;46.00
28959;DHT22;16066;0.000;0.000;2023-02-23T08:22:03;20.40;46.00
28959;DHT22;16066;0.000;0.000;2023-02-23T08:24:28;20.40;45.90
28959;DHT22;16066;0.000;0.000;2023-02-23T08:26:55;20.40;46.00
28959;DHT22;16066;0.000;0.000;2023-02-23T08:29:21;20.40;46.10
28959;DHT22;16066;0.000;0.000;2023-02-23T08:31:46;20.50;46.00
28959;DHT22;16066;0.000;0.000;2023-02-23T08:34:12;20.50;46.00
28959;DHT22;16066;0.000;0.000;2023-02-23T08:36:38;20.50;46.00
28959;DHT22;16066;0.000;0.000;2023-02-23T08:39:05;20.50;46.00
28959;DHT22;16066;0.000;0.000;2023-02-23T08:41:34;20.50;46.00
28959;DHT22;16066;0.000;0.000;2023-02-23T08:44:00;20.50;45.90
28959;DHT22;16066;0.000;0.000;2023-02-23T08:46:25;20.50;45.90
28959;DHT22;16066;0.000;0.000;2023-02-23T08:48:51;20.40;46.10
28959;DHT22;16066;0.000;0.000;2023-02-23T08:51:16;20.50;46.20
28959;DHT22;16066;0.000;0.000;2023-02-23T08:53:42;20.50;46.30
28959;DHT22;16066;0.000;0.000;2023-02-23T08:56:09;20.50;46.30
28959;DHT22;16066;0.000;0.000;2023-02-23T08:58:35;20.50;46.40
28959;DHT22;16066;0.000;0.000;2023-02-23T09:01:01;20.50;46.40
28959;DHT22;16066;0.000;0.000;2023-02-23T09:03:28;20.50;46.60
28959;DHT22;16066;0.000;0.000;2023-02-23T09:06:05;20.50;46.50
28959;DHT22;16066;0.000;0.000;2023-02-23T09:08:32;20.50;46.40
28959;DHT22;16066;0.000;0.000;2023-02-23T09:10:57;20.50;46.40
28959;DHT22;16066;0.000;0.000;2023-02-23T09:13:23;20.50;46.60
28959;DHT22;16066;0.000;0.000;2023-02-23T09:15:48;20.50;46.30
28959;DHT22;16066;0.000;0.000;2023-02-23T09:18:14;20.50;46.20
28959;DHT22;16066;0.000;0.000;2023-02-23T09:20:42;20.50;46.20
28959;DHT22;16066;0.000;0.000;2023-02-23T09:23:08;20.50;46.10
28959;DHT22;16066;0.000;0.000;2023-02-23T09:25:41;20.50;45.90
28959;DHT22;16066;0.000;0.000;2023-02-23T09:28:14;20.50;46.00
28959;DHT22;16066;0.000;0.000;2023-02-23T09:30:41;20.50;46.10
28959;DHT22;16066;0.000;0.000;2023-02-23T09:33:08;20.50;46.00
28959;DHT22;16066;0.000;0.000;2023-02-23T09:35:34;20.50;45.90
28959;DHT22;16066;0.000;0.000;2023-02-23T09:38:01;20.50;46.20
28959;DHT22;16066;0.000;0.000;2023-02-23T09:40:46;20.40;46.20
28959;DHT22;16066;0.000;0.000;2023-02-23T09:43:15;20.40;46.30
28959;DHT22;16066;0.000;0.000;2023-02-23T09:48:23;20.40;46.30
28959;DHT22;16066;0.000;0.000;2023-02-23T09:50:52;20.30;46.20
28959;DHT22;16066;0.000;0.000;2023-02-23T09:53:35;20.30;46.30
28959;DHT22;16066;0.000;0.000;2023-02-23T09:56:10;20.30;46.40
28959;DHT22;16066;0.000;0.000;2023-02-23T09:58:38;20.30;46.60
28959;DHT22;16066;0.000;0.000;2023-02-23T10:01:30;20.30;46.50
28959;DHT22;16066;0.000;0.000;2023-02-23T10:04:15;20.30;46.50
28959;DHT22;16066;0.000;0.000;2023-02-23T10:06:48;20.30;46.60
28959;DHT22;16066;0.000;0.000;2023-02-23T10:12:25;20.30;46.60
28959;DHT22;16066;0.000;0.000;2023-02-23T10:17:33;20.20;46.60
28959;DHT22;16066;0.000;0.000;2023-02-23T10:22:48;20.20;46.50
28959;DHT22;16066;0.000;0.000;2023-02-23T10:25:24;20.20;46.60
28959;DHT22;16066;0.000;0.000;2023-02-23T10:27:50;20.20;46.60
28959;DHT22;16066;0.000;0.000;2023-02-23T10:30:31;20.20;46.60
28959;DHT22;16066;0.000;0.000;2023-02-23T10:33:03;20.20;46.60
28959;DHT22;16066;0.000;0.000;2023-02-23T10:35:31;20.20;46.60
28959;DHT22;16066;0.000;0.000;2023-02-23T10:37:59;20.20;46.70
28959;DHT22;16066;0.000;0.000;2023-02-23T10:40:27;20.20;46.70
28959;DHT22;16066;0.000;0.000;2023-02-23T10:42:55;20.20;46.70
28959;DHT22;16066;0.000;0.000;2023-02-23T10:45:23;20.20;46.70
28959;DHT22;16066;0.000;0.000;2023-02-23T10:47:55;20.20;46.70
28959;DHT22;16066;0.000;0.000;2023-02-23T10:50:22;20.20;46.70
28959;DHT22;16066;0.000;0.000;2023-02-23T10:52:54;20.20;46.70
28959;DHT22;16066;0.000;0.000;2023-02-23T10:55:30;20.20;46.70
28959;DHT22;16066;0.000;0.000;2023-02-23T10:58:19;20.10;46.60
28959;DHT22;16066;0.000;0.000;2023-02-23T11:00:53;20.10;46.60
28959;DHT22;16066;0.000;0.000;2023-02-23T11:05:51;20.10;46.70
28959;DHT22;16066;0.000;0.000;2023-02-23T11:13:41;20.10;46.60
28959;DHT22;16066;0.000;0.000;2023-02-23T11:18:49;20.10;46.70
28959;DHT22;16066;0.000;0.000;2023-02-23T11:21:28;20.10;46.70
28959;DHT22;16066;0.000;0.000;2023-02-23T11:23:56;20.10;46.70
28959;DHT22;16066;0.000;0.000;2023-02-23T11:26:30;20.10;46.60
28959;DHT22;16066;0.000;0.000;2023-02-23T11:28:59;20.10;46.70
28959;DHT22;16066;0.000;0.000;2023-02-23T11:31:31;20.10;46.70
28959;DHT22;16066;0.000;0.000;2023-02-23T11:34:00;20.10;46.70
28959;DHT22;16066;0.000;0.000;2023-02-23T11:36:29;20.10;46.80
28959;DHT22;16066;0.000;0.000;2023-02-23T11:39:02;20.10;46.80
28959;DHT22;16066;0.000;0.000;2023-02-23T11:41:27;20.10;46.70
28959;DHT22;16066;0.000;0.000;2023-02-23T11:43:58;20.10;46.70
28959;DHT22;16066;0.000;0.000;2023-02-23T11:46:25;20.10;46.80
28959;DHT22;16066;0.000;0.000;2023-02-23T11:48:56;20.10;46.80
28959;DHT22;16066;0.000;0.000;2023-02-23T11:51:30;20.10;46.70
28959;DHT22;16066;0.000;0.000;2023-02-23T11:53:57;20.10;46.80
28959;DHT22;16066;0.000;0.000;2023-02-23T11:56:24;20.10;46.90
28959;DHT22;16066;0.000;0.000;2023-02-23T11:58:58;20.10;47.00
28959;DHT22;16066;0.000;0.000;2023-02-23T12:01:49;20.00;46.90
28959;DHT22;16066;0.000;0.000;2023-02-23T12:04:34;20.00;46.90
28959;DHT22;16066;0.000;0.000;2023-02-23T12:07:28;20.00;46.90
28959;DHT22;16066;0.000;0.000;2023-02-23T12:18:11;20.00;46.90
28959;DHT22;16066;0.000;0.000;2023-02-23T12:20:40;20.00;46.90
28959;DHT22;16066;0.000;0.000;2023-02-23T12:23:12;20.00;47.00
28959;DHT22;16066;0.000;0.000;2023-02-23T12:25:55;20.00;46.90
28959;DHT22;16066;0.000;0.000;2023-02-23T12:28:44;20.00;46.90
28959;DHT22;16066;0.000;0.000;2023-02-23T12:31:26;20.00;46.90
28959;DHT22;16066;0.000;0.000;2023-02-23T12:34:21;20.00;46.90
28959;DHT22;16066;0.000;0.000;2023-02-23T12:37:26;20.00;47.00
28959;DHT22;16066;0.000;0.000;2023-02-23T12:40:21;20.00;47.00
28959;DHT22;16066;0.000;0.000;2023-02-23T12:45:49;20.10;47.00
28959;DHT22;16066;0.000;0.000;2023-02-23T12:51:03;20.10;46.90
28959;DHT22;16066;0.000;0.000;2023-02-23T12:58:33;20.10;46.70
28959;DHT22;16066;0.000;0.000;2023-02-23T13:01:20;20.20;46.80
28959;DHT22;16066;0.000;0.000;2023-02-23T13:04:27;20.20;46.80
28959;DHT22;16066;0.000;0.000;2023-02-23T13:06:57;20.20;46.70
28959;DHT22;16066;0.000;0.000;2023-02-23T13:17:58;20.20;46.80
28959;DHT22;16066;0.000;0.000;2023-02-23T13:23:19;20.30;46.80
28959;DHT22;16066;0.000;0.000;2023-02-23T13:25:50;20.30;46.80
28959;DHT22;16066;0.000;0.000;2023-02-23T13:31:22;20.30;46.70
28959;DHT22;16066;0.000;0.000;2023-02-23T13:33:49;20.30;46.70
28959;DHT22;16066;0.000;0.000;2023-02-23T13:36:15;20.30;46.60
28959;DHT22;16066;0.000;0.000;2023-02-23T13:41:32;20.30;46.80
28959;DHT22;16066;0.000;0.000;2023-02-23T13:44:26;20.30;46.80
28959;DHT22;16066;0.000;0.000;2023-02-23T13:49:53;20.30;47.00
28959;DHT22;16066;0.000;0.000;2023-02-23T13:54:58;20.30;46.80
28959;DHT22;16066;0.000;0.000;2023-02-23T13:57:29;20.30;46.90
28959;DHT22;16066;0.000;0.000;2023-02-23T13:59:55;20.30;46.90
28959;DHT22;16066;0.000;0.000;2023-02-23T14:05:00;20.30;46.90
28959;DHT22;16066;0.000;0.000;2023-02-23T14:07:29;20.30;47.00
28959;DHT22;16066;0.000;0.000;2023-02-23T14:10:03;20.30;47.00
28959;DHT22;16066;0.000;0.000;2023-02-23T14:15:28;20.30;46.90
28959;DHT22;16066;0.000;0.000;2023-02-23T14:23:51;20.40;46.70
28959;DHT22;16066;0.000;0.000;2023-02-23T14:26:37;20.50;46.60
28959;DHT22;16066;0.000;0.000;2023-02-23T14:29:19;20.40;46.60
28959;DHT22;16066;0.000;0.000;2023-02-23T14:32:01;20.50;46.70
28959;DHT22;16066;0.000;0.000;2023-02-23T14:34:50;20.50;46.70
28959;DHT22;16066;0.000;0.000;2023-02-23T14:37:34;20.50;46.70
28959;DHT22;16066;0.000;0.000;2023-02-23T14:40:11;20.50;46.90
28959;DHT22;16066;0.000;0.000;2023-02-23T14:42:38;20.50;46.40
28959;DHT22;16066;0.000;0.000;2023-02-23T14:45:28;20.60;46.30
28959;DHT22;16066;0.000;0.000;2023-02-23T14:48:06;20.60;46.10
28959;DHT22;16066;0.000;0.000;2023-02-23T14:50:35;20.60;46.10
28959;DHT22;16066;0.000;0.000;2023-02-23T14:53:02;20.60;46.00
28959;DHT22;16066;0.000;0.000;2023-02-23T14:55:31;20.50;45.80
28959;DHT22;16066;0.000;0.000;2023-02-23T14:58:02;20.50;45.80
28959;DHT22;16066;0.000;0.000;2023-02-23T15:00:29;20.50;45.80
28959;DHT22;16066;0.000;0.000;2023-02-23T15:03:00;20.50;45.70
28959;DHT22;16066;0.000;0.000;2023-02-23T15:05:36;20.50;45.80
28959;DHT22;16066;0.000;0.000;2023-02-23T15:08:07;20.40;45.60
28959;DHT22;16066;0.000;0.000;2023-02-23T15:10:36;20.40;45.60
28959;DHT22;16066;0.000;0.000;2023-02-23T15:13:11;20.40;45.70
28959;DHT22;16066;0.000;0.000;2023-02-23T15:15:44;20.40;45.70
28959;DHT22;16066;0.000;0.000;2023-02-23T15:21:31;20.40;45.60
28959;DHT22;16066;0.000;0.000;2023-02-23T15:24:05;20.40;45.50
28959;DHT22;16066;0.000;0.000;2023-02-23T15:26:37;20.40;45.50
28959;DHT22;16066;0.000;0.000;2023-02-23T15:31:34;20.40;45.50
28959;DHT22;16066;0.000;0.000;2023-02-23T15:34:01;20.30;45.40
28959;DHT22;16066;0.000;0.000;2023-02-23T15:36:29;20.40;45.60
28959;DHT22;16066;0.000;0.000;2023-02-23T15:39:01;20.40;45.60
28959;DHT22;16066;0.000;0.000;2023-02-23T15:41:34;20.40;45.80
28959;DHT22;16066;0.000;0.000;2023-02-23T15:46:34;20.40;46.00
28959;DHT22;16066;0.000;0.000;2023-02-23T15:49:03;20.40;46.00
28959;DHT22;16066;0.000;0.000;2023-02-23T15:51:42;20.40;45.90
28959;DHT22;16066;0.000;0.000;2023-02-23T15:54:25;20.40;46.10
28959;DHT22;16066;0.000;0.000;2023-02-23T15:56:55;20.40;46.20
28959;DHT22;16066;0.000;0.000;2023-02-23T15:59:29;20.40;46.20
28959;DHT22;16066;0.000;0.000;2023-02-23T16:01:58;20.40;46.20
28959;DHT22;16066;0.000;0.000;2023-02-23T16:04:30;20.40;46.30
28959;DHT22;16066;0.000;0.000;2023-02-23T16:07:35;20.40;46.30
28959;DHT22;16066;0.000;0.000;2023-02-23T16:10:21;20.40;46.40
28959;DHT22;16066;0.000;0.000;2023-02-23T16:12:52;20.40;46.30
28959;DHT22;16066;0.000;0.000;2023-02-23T16:15:22;20.40;46.40
28959;DHT22;16066;0.000;0.000;2023-02-23T16:18:01;20.40;46.40
28959;DHT22;16066;0.000;0.000;2023-02-23T16:23:00;20.40;46.40
28959;DHT22;16066;0.000;0.000;2023-02-23T16:25:27;20.40;46.40
28959;DHT22;16066;0.000;0.000;2023-02-23T16:28:03;20.40;46.40
28959;DHT22;16066;0.000;0.000;2023-02-23T16:30:40;20.40;46.40
28959;DHT22;16066;0.000;0.000;2023-02-23T16:33:16;20.40;46.40
28959;DHT22;16066;0.000;0.000;2023-02-23T16:35:50;20.40;46.40
28959;DHT22;16066;0.000;0.000;2023-02-23T16:38:23;20.40;46.40
28959;DHT22;16066;0.000;0.000;2023-02-23T16:40:49;20.40;46.20
28959;DHT22;16066;0.000;0.000;2023-02-23T16:43:15;20.40;46.30
28959;DHT22;16066;0.000;0.000;2023-02-23T16:45:41;20.40;46.50
28959;DHT22;16066;0.000;0.000;2023-02-23T16:48:14;20.40;46.50
28959;DHT22;16066;0.000;0.000;2023-02-23T16:50:40;20.30;46.30
28959;DHT22;16066;0.000;0.000;2023-02-23T16:53:07;20.40;46.40
28959;DHT22;16066;0.000;0.000;2023-02-23T16:55:41;20.30;46.50
28959;DHT22;16066;0.000;0.000;2023-02-23T16:58:16;20.40;46.60
28959;DHT22;16066;0.000;0.000;2023-02-23T17:00:43;20.40;46.60
28959;DHT22;16066;0.000;0.000;2023-02-23T17:03:22;20.40;46.70
28959;DHT22;16066;0.000;0.000;2023-02-23T17:05:49;20.40;46.70
28959;DHT22;16066;0.000;0.000;2023-02-23T17:08:15;20.40;46.70
28959;DHT22;16066;0.000;0.000;2023-02-23T17:10:42;20.40;46.70
28959;DHT22;16066;0.000;0.000;2023-02-23T17:13:19;20.40;46.50
28959;DHT22;16066;0.000;0.000;2023-02-23T17:15:46;20.40;46.50
28959;DHT22;16066;0.000;0.000;2023-02-23T17:18:17;20.40;46.70
28959;DHT22;16066;0.000;0.000;2023-02-23T17:20:43;20.40;46.60
28959;DHT22;16066;0.000;0.000;2023-02-23T17:23:09;20.30;46.50
28959;DHT22;16066;0.000;0.000;2023-02-23T17:25:34;20.30;46.60
28959;DHT22;16066;0.000;0.000;2023-02-23T17:28:00;20.30;46.60
28959;DHT22;16066;0.000;0.000;2023-02-23T17:30:27;20.30;47.30
28959;DHT22;16066;0.000;0.000;2023-02-23T17:32:54;20.30;46.60
28959;DHT22;16066;0.000;0.000;2023-02-23T17:35:21;20.30;46.60
28959;DHT22;16066;0.000;0.000;2023-02-23T17:37:47;20.40;46.70
28959;DHT22;16066;0.000;0.000;2023-02-23T17:40:17;20.30;46.60
28959;DHT22;16066;0.000;0.000;2023-02-23T17:42:42;20.30;46.60
28959;DHT22;16066;0.000;0.000;2023-02-23T17:45:08;20.40;46.70
28959;DHT22;16066;0.000;0.000;2023-02-23T17:47:35;20.30;46.60
28959;DHT22;16066;0.000;0.000;2023-02-23T17:50:02;20.40;46.70
28959;DHT22;16066;0.000;0.000;2023-02-23T17:52:28;20.30;46.60
28959;DHT22;16066;0.000;0.000;2023-02-23T17:54:54;20.30;46.60
28959;DHT22;16066;0.000;0.000;2023-02-23T17:57:23;20.30;46.50
28959;DHT22;16066;0.000;0.000;2023-02-23T17:59:49;20.40;46.60